Portada
METAR-TAF:

METAR-TAF

Aeroports :

Aeroport de Copenhaguen

Copenhaguen, Dinamarca

latitud: 55-37N, longitud: 012-39E, altitud: 5 m

Observació

L'informe es va fer fa 34 minuts, a les 04:50 UTC
Vent 15 kt del Est/Nord-Est
Temperatura 4°C
Humitat 93%
Pressió 1027 hPa
Visibilitat 10 km o més
Escasses núvols a una alçada de 1000 ft
Cel ennuvolat a una alçada de 1200 ft, Cumulus congestus.
Cel ennuvolat a una alçada de 2400 ft
xàfecs de pluja

METAR: EKCH 200450Z 06015KT 9999 -SHRA FEW010 BKN012TCU BKN024 04/03 Q1027 BECMG BKN045

Hora: 06:24 (05:24 UTC)

Pronòstic

L'informe es va fer fa 6 hores i 30 minuts, a les 22:54 UTC
Pronòstic vàlid del 20 a les 00 UTC al 20 a les 24 UTC
Vent 15 kt del Est
Visibilitat 10 km o més
Cel ennuvolat a una alçada de 2000 ft
Temporalment
l' 20 a les 00 UTC al 20 a les 10 UTC
Cel ennuvolat a una alçada de 1200 ft, Cumulus congestus.

TAF: EKCH 192254Z 2000/2024 08015KT 9999 BKN020 TEMPO 2000/2010 BKN012TCU

Observacions i pronòstics meteorològics de més de 4000 aeroports (METAR i TAF).

Les estacions disponibles són els punts grocs i vermells al mapa.

Posi el ratolí al punt desitjat per veure el nom de l'estació.

Feu clic per veure les observacions i els pronòstics meteorològics.

Per canviar el mapa: feu clic els botons verds amb una creu de color negre per apropar; al botó verd amb un guió per allunyar la imatge; o en les fletxes verdes per a mapes adjacents.


METAR-TAF: